Time;durP1;ratioP1;P1;durP2;ratioP2;P2;SDS_P1;SDS_P2;PMS_P1;PMS_P2;Temp;Humidity;BMP_temperature;BMP_pressure;BME280_temperature;BME280_humidity;BME280_pressure;Samples;Min_cycle;Max_cycle;Signal;HPM_P1;HPM_P2
2023/03/25 00:01:02;;;;;;;22.58;3.40;;;;;;;10.56;100.00;100130.00;5028364;28;20028;-61
2023/03/25 00:03:29;;;;;;;22.70;3.17;;;;;;;10.59;100.00;100150.94;5029315;28;20033;-63
2023/03/25 00:05:56;;;;;;;19.80;3.15;;;;;;;10.66;100.00;100134.84;5029410;28;20021;-62
2023/03/25 00:08:23;;;;;;;19.05;3.20;;;;;;;10.55;100.00;100128.31;5029252;28;20025;-61
2023/03/25 00:10:57;;;;;;;15.52;2.70;;;;;;;10.60;100.00;100131.56;5028603;28;20038;-61
2023/03/25 00:13:23;;;;;;;21.40;3.35;;;;;;;10.58;100.00;100136.06;5028151;28;20676;-62
2023/03/25 00:15:52;;;;;;;29.63;3.78;;;;;;;10.61;100.00;100132.44;5026991;28;20022;-63
2023/03/25 00:18:19;;;;;;;18.42;3.13;;;;;;;10.58;100.00;100127.28;5027884;28;20013;-63
2023/03/25 00:20:48;;;;;;;10.27;2.10;;;;;;;10.52;100.00;100138.09;5011075;28;20048;-62
2023/03/25 00:23:14;;;;;;;19.00;2.97;;;;;;;10.58;100.00;100117.63;5028181;28;20104;-62
2023/03/25 00:25:40;;;;;;;15.20;3.05;;;;;;;10.55;100.00;100125.66;5027877;28;20057;-61
2023/03/25 00:28:06;;;;;;;13.00;2.47;;;;;;;10.56;100.00;100137.03;5025184;28;20038;-60
2023/03/25 00:30:31;;;;;;;18.42;3.55;;;;;;;10.51;100.00;100124.09;5028083;28;20033;-64
2023/03/25 00:33:00;;;;;;;20.70;3.67;;;;;;;10.52;100.00;100131.06;5027048;28;20040;-64
2023/03/25 00:35:27;;;;;;;18.42;3.22;;;;;;;10.47;100.00;100115.47;5028702;28;20064;-62
2023/03/25 00:37:58;;;;;;;16.00;2.42;;;;;;;10.46;100.00;100118.16;5027950;28;20022;-62
2023/03/25 00:40:27;;;;;;;22.13;2.92;;;;;;;10.43;100.00;100128.81;5026874;28;20021;-62
2023/03/25 00:42:52;;;;;;;18.53;3.10;;;;;;;10.39;100.00;100133.38;5027531;28;20032;-63
2023/03/25 00:45:18;;;;;;;17.40;3.17;;;;;;;10.46;100.00;100148.00;5027487;28;20403;-61
2023/03/25 00:47:43;;;;;;;22.63;3.20;;;;;;;10.52;100.00;100146.00;5028528;28;20109;-62
2023/03/25 00:50:09;;;;;;;15.25;3.03;;;;;;;10.48;100.00;100127.69;5028082;28;20434;-62
2023/03/25 00:52:35;;;;;;;16.40;2.75;;;;;;;10.40;100.00;100123.69;5027214;28;20433;-62
2023/03/25 00:55:00;;;;;;;21.38;5.00;;;;;;;10.42;100.00;100140.28;5027819;28;20018;-61
2023/03/25 00:57:26;;;;;;;20.42;2.85;;;;;;;10.35;100.00;100132.66;5027739;28;20037;-63
2023/03/25 00:59:51;;;;;;;20.90;2.83;;;;;;;10.33;100.00;100123.94;5028512;28;20026;-63
2023/03/25 01:02:17;;;;;;;16.67;2.40;;;;;;;10.57;100.00;100134.34;5024760;28;20684;-62
2023/03/25 01:04:44;;;;;;;24.45;3.95;;;;;;;10.41;100.00;100113.06;5027740;28;20669;-63
2023/03/25 01:07:10;;;;;;;23.08;3.30;;;;;;;10.40;100.00;100124.53;5027173;28;20029;-64
2023/03/25 01:09:36;;;;;;;24.02;3.85;;;;;;;10.46;100.00;100132.22;5027448;28;20071;-63
2023/03/25 01:12:01;;;;;;;25.70;2.85;;;;;;;10.44;100.00;100125.25;5026966;28;20075;-64
2023/03/25 01:14:27;;;;;;;19.38;2.97;;;;;;;10.49;100.00;100128.56;5025914;28;20029;-62
2023/03/25 01:16:53;;;;;;;16.90;3.08;;;;;;;10.40;100.00;100121.03;5026879;28;20033;-62
2023/03/25 01:19:19;;;;;;;15.25;3.08;;;;;;;10.21;100.00;100130.59;5026058;28;20036;-62
2023/03/25 01:21:44;;;;;;;25.98;3.08;;;;;;;10.03;100.00;100126.16;5027652;28;20402;-62
2023/03/25 01:24:12;;;;;;;16.67;3.10;;;;;;;9.92;100.00;100129.25;5008321;28;20485;-62
2023/03/25 01:26:40;;;;;;;22.00;3.42;;;;;;;9.79;100.00;100128.91;5027690;28;20470;-61
2023/03/25 01:29:05;;;;;;;21.63;3.50;;;;;;;9.71;100.00;100116.06;5008852;28;20124;-63
2023/03/25 01:31:30;;;;;;;23.83;3.47;;;;;;;9.71;100.00;100121.34;5025966;28;20045;-59
2023/03/25 01:33:56;;;;;;;19.73;3.40;;;;;;;9.73;100.00;100136.13;5027790;28;20117;-61
2023/03/25 01:36:23;;;;;;;13.25;3.30;;;;;;;9.64;100.00;100118.13;5025189;28;20021;-60
2023/03/25 01:38:49;;;;;;;22.90;4.05;;;;;;;9.80;100.00;100115.69;5027549;28;20060;-61
2023/03/25 01:41:15;;;;;;;23.45;3.03;;;;;;;9.78;100.00;100119.31;5008178;28;20017;-62
2023/03/25 01:43:40;;;;;;;20.63;3.13;;;;;;;9.75;100.00;100117.66;5026150;28;20033;-62
2023/03/25 01:46:13;;;;;;;21.15;3.85;;;;;;;9.78;100.00;100111.44;5026225;28;20032;-62
2023/03/25 01:48:41;;;;;;;18.13;2.90;;;;;;;9.86;100.00;100123.34;5026760;28;20040;-61
2023/03/25 01:51:11;;;;;;;23.27;3.40;;;;;;;9.82;100.00;100121.72;5008691;28;20075;-62
2023/03/25 01:53:37;;;;;;;19.67;4.05;;;;;;;9.81;100.00;100112.13;5024644;28;20025;-62
2023/03/25 01:56:05;;;;;;;21.85;3.80;;;;;;;9.79;100.00;100114.00;5026007;28;20383;-63
2023/03/25 01:58:32;;;;;;;15.60;2.78;;;;;;;9.80;100.00;100118.31;5024674;28;20101;-60
2023/03/25 02:03:26;;;;;;;25.02;3.97;;;;;;;9.89;100.00;100117.06;5025867;28;20041;-63
2023/03/25 02:06:05;;;;;;;20.15;3.42;;;;;;;9.92;100.00;100100.28;5025677;28;20587;-62
2023/03/25 02:08:37;;;;;;;27.60;4.40;;;;;;;9.90;100.00;100094.25;5027375;28;20033;-63
2023/03/25 02:11:04;;;;;;;20.58;2.92;;;;;;;9.83;100.00;100112.06;5025672;28;20099;-62
2023/03/25 02:13:30;;;;;;;18.05;3.35;;;;;;;9.78;100.00;100106.16;5026961;28;20053;-62
2023/03/25 02:16:17;;;;;;;16.02;3.63;;;;;;;9.74;100.00;100102.78;5009791;28;20065;-63
2023/03/25 02:18:49;;;;;;;26.27;3.42;;;;;;;9.93;100.00;100091.50;5010097;28;20026;-63
2023/03/25 02:21:49;;;;;;;23.10;3.83;;;;;;;9.88;100.00;100096.97;5026697;28;20038;-63
2023/03/25 02:24:34;;;;;;;22.02;3.88;;;;;;;9.95;100.00;100097.53;5026488;28;20028;-62
2023/03/25 02:27:14;;;;;;;21.35;4.35;;;;;;;10.01;100.00;100092.00;5027253;28;20052;-60
2023/03/25 02:29:54;;;;;;;25.45;3.08;;;;;;;9.92;100.00;100090.63;5009380;28;20100;-57
2023/03/25 02:32:45;;;;;;;29.77;4.25;;;;;;;9.90;100.00;100110.03;5025358;28;20048;-63
2023/03/25 02:35:23;;;;;;;23.33;3.70;;;;;;;10.00;100.00;100092.94;5026830;28;20045;-64
2023/03/25 02:38:17;;;;;;;15.82;3.05;;;;;;;9.98;100.00;100081.59;5026048;28;20074;-63
2023/03/25 02:41:00;;;;;;;27.75;3.58;;;;;;;10.02;100.00;100084.97;5016970;28;20085;-62
2023/03/25 02:43:39;;;;;;;24.55;4.13;;;;;;;9.98;100.00;100071.09;5011565;28;20108;-64
2023/03/25 02:46:09;;;;;;;27.30;4.60;;;;;;;9.97;100.00;100079.91;5029743;28;20067;-63
2023/03/25 02:48:34;;;;;;;29.40;4.72;;;;;;;10.05;100.00;100077.78;5012971;28;20029;-63
2023/03/25 02:51:15;;;;;;;26.50;3.22;;;;;;;9.97;100.00;100090.44;5030223;28;20037;-63
2023/03/25 02:53:43;;;;;;;25.08;3.42;;;;;;;10.11;100.00;100080.16;5012007;28;20041;-63
2023/03/25 02:56:11;;;;;;;27.13;4.53;;;;;;;10.11;100.00;100077.53;5012452;28;20763;-62
2023/03/25 02:58:38;;;;;;;27.85;3.40;;;;;;;10.22;100.00;100079.69;5011872;28;20057;-64
2023/03/25 03:01:03;;;;;;;28.73;3.75;;;;;;;10.09;100.00;100068.81;5011685;28;20060;-62
2023/03/25 03:03:29;;;;;;;21.50;3.85;;;;;;;10.03;100.00;100077.00;5029881;28;20021;-63
2023/03/25 03:06:02;;;;;;;30.40;4.50;;;;;;;10.13;100.00;100060.78;5029954;28;20033;-62
2023/03/25 03:08:50;;;;;;;19.08;3.20;;;;;;;10.02;100.00;100069.19;5012651;28;20029;-62
2023/03/25 03:12:06;;;;;;;42.72;5.53;;;;;;;10.05;100.00;100048.81;5028383;28;20032;-62
2023/03/25 03:14:49;;;;;;;24.85;3.33;;;;;;;10.06;100.00;100052.31;4987559;28;20375;-62
2023/03/25 03:17:22;;;;;;;21.48;3.38;;;;;;;10.07;100.00;100043.50;5009458;28;20033;-62
2023/03/25 03:19:54;;;;;;;18.70;4.22;;;;;;;10.06;100.00;100041.78;4993203;28;20029;-62
2023/03/25 03:22:40;;;;;;;22.13;3.55;;;;;;;9.97;100.00;100064.13;4992518;28;20038;-63
2023/03/25 03:25:12;;;;;;;24.45;4.05;;;;;;;9.93;100.00;100052.03;5009120;28;20033;-64
2023/03/25 03:27:53;;;;;;;30.85;4.70;;;;;;;9.96;100.00;100047.47;5009941;28;20496;-63
2023/03/25 03:30:28;;;;;;;22.77;3.95;;;;;;;9.84;100.00;100042.72;4992356;28;20032;-64
2023/03/25 03:33:15;;;;;;;27.90;3.53;;;;;;;9.69;100.00;100060.06;5001039;28;20496;-61
2023/03/25 03:35:48;;;;;;;25.67;4.15;;;;;;;9.63;100.00;100058.53;5012558;28;20052;-64
2023/03/25 03:38:15;;;;;;;22.50;3.92;;;;;;;9.54;100.00;100066.81;5012394;28;20386;-63
2023/03/25 03:40:44;;;;;;;26.42;4.22;;;;;;;9.49;100.00;100056.50;5012293;28;20385;-64
2023/03/25 03:43:15;;;;;;;34.53;4.57;;;;;;;9.35;100.00;100047.41;5011233;28;20036;-62
2023/03/25 03:45:47;;;;;;;24.63;4.00;;;;;;;9.40;100.00;100062.13;5006783;28;20056;-64
2023/03/25 03:48:22;;;;;;;30.50;6.18;;;;;;;9.38;100.00;100063.94;4992418;28;20604;-62
2023/03/25 03:50:55;;;;;;;27.95;3.83;;;;;;;9.44;100.00;100072.47;5009500;28;20026;-63
2023/03/25 03:53:25;;;;;;;33.78;4.82;;;;;;;9.44;100.00;100067.19;5028077;28;20030;-62
2023/03/25 03:56:15;;;;;;;28.33;5.50;;;;;;;9.44;100.00;100069.81;5029182;28;20400;-64
2023/03/25 03:58:41;;;;;;;34.47;5.28;;;;;;;9.43;100.00;100075.16;5007904;28;20485;-63
2023/03/25 04:01:16;;;;;;;36.58;8.07;;;;;;;9.43;100.00;100077.78;5008979;28;20501;-64
2023/03/25 04:03:57;;;;;;;30.50;5.60;;;;;;;9.29;100.00;100068.69;5008862;28;20485;-63
2023/03/25 04:06:26;;;;;;;37.58;5.03;;;;;;;9.22;100.00;100054.91;5027226;28;20033;-62
2023/03/25 04:09:17;;;;;;;21.85;4.32;;;;;;;9.32;100.00;100070.31;5010839;28;20029;-61
2023/03/25 04:11:47;;;;;;;29.10;4.20;;;;;;;9.27;100.00;100057.38;5011417;28;20068;-63
2023/03/25 04:14:13;;;;;;;25.38;4.25;;;;;;;9.29;100.00;100070.44;5027469;28;20045;-63
2023/03/25 04:16:38;;;;;;;35.90;4.72;;;;;;;9.34;100.00;100053.56;5010514;28;20026;-62
2023/03/25 04:19:05;;;;;;;27.60;4.50;;;;;;;9.35;100.00;100060.56;5029230;28;20515;-63
2023/03/25 04:21:31;;;;;;;28.38;4.38;;;;;;;9.35;100.00;100063.19;5010785;28;20704;-62
2023/03/25 04:24:00;;;;;;;34.25;4.03;;;;;;;9.36;100.00;100053.50;5028858;28;20401;-63
2023/03/25 04:26:28;;;;;;;27.08;4.35;;;;;;;9.29;100.00;100076.56;5027086;28;20049;-62
2023/03/25 04:28:58;;;;;;;36.60;4.60;;;;;;;9.29;100.00;100073.06;5027070;28;20033;-62
2023/03/25 04:31:24;;;;;;;40.70;5.22;;;;;;;9.41;100.00;100061.19;5029142;28;20280;-63
2023/03/25 04:33:50;;;;;;;29.65;4.65;;;;;;;9.44;100.00;100072.47;5029132;28;20040;-61
2023/03/25 04:36:16;;;;;;;33.15;4.70;;;;;;;9.46;100.00;100059.25;5010399;28;20030;-61
2023/03/25 04:38:44;;;;;;;37.20;5.47;;;;;;;9.43;100.00;100067.25;5011317;28;20021;-62
2023/03/25 04:41:10;;;;;;;39.25;5.68;;;;;;;9.37;100.00;100063.13;5028537;28;20030;-63
2023/03/25 04:43:38;;;;;;;38.10;4.97;;;;;;;9.48;100.00;100071.41;5027786;28;20021;-61
2023/03/25 04:46:03;;;;;;;36.22;5.40;;;;;;;9.59;100.00;100102.53;5028171;28;20025;-62
2023/03/25 04:48:30;;;;;;;36.78;4.95;;;;;;;9.53;100.00;100092.25;5027681;28;20020;-61
2023/03/25 04:50:57;;;;;;;30.35;5.30;;;;;;;9.45;100.00;100089.09;5028682;28;20035;-63
2023/03/25 04:53:23;;;;;;;33.90;5.10;;;;;;;9.52;100.00;100079.16;5028164;28;20013;-61
2023/03/25 04:55:50;;;;;;;39.50;6.35;;;;;;;9.43;100.00;100081.28;5028323;28;20036;-63
2023/03/25 04:58:16;;;;;;;28.55;4.50;;;;;;;9.37;100.00;100091.19;5008903;28;20520;-61
2023/03/25 05:00:42;;;;;;;41.45;5.60;;;;;;;9.40;100.00;100096.31;5028416;28;20025;-62
2023/03/25 05:03:10;;;;;;;22.58;5.45;;;;;;;9.33;100.00;100109.69;5027225;28;20460;-64
2023/03/25 05:05:35;;;;;;;28.38;4.70;;;;;;;9.32;100.00;100105.38;5028275;28;20092;-64
2023/03/25 05:08:00;;;;;;;27.02;4.63;;;;;;;9.43;100.00;100088.28;5028517;28;20026;-63
2023/03/25 05:10:29;;;;;;;36.63;5.65;;;;;;;9.35;100.00;100104.38;5029357;28;20026;-63
2023/03/25 05:12:59;;;;;;;38.83;5.20;;;;;;;9.25;100.00;100124.06;5027768;28;20030;-63
2023/03/25 05:15:25;;;;;;;34.92;5.20;;;;;;;9.15;100.00;100103.41;5028860;28;20508;-63
2023/03/25 05:17:51;;;;;;;31.40;4.43;;;;;;;9.30;100.00;100095.84;5011022;28;20124;-64
2023/03/25 05:20:16;;;;;;;31.65;4.10;;;;;;;9.23;100.00;100106.59;5028559;28;20021;-64
2023/03/25 05:22:42;;;;;;;41.85;4.80;;;;;;;9.14;100.00;100085.06;5029436;28;20657;-65
2023/03/25 05:25:08;;;;;;;38.03;4.55;;;;;;;9.21;100.00;100097.03;5028822;28;20524;-64
2023/03/25 05:27:34;;;;;;;36.05;4.82;;;;;;;9.21;100.00;100103.16;5027822;28;20040;-63
2023/03/25 05:30:00;;;;;;;31.50;4.63;;;;;;;9.26;100.00;100123.16;5041520;28;20100;-64
2023/03/25 05:32:28;;;;;;;36.42;5.40;;;;;;;9.23;100.00;100105.72;5029017;28;20030;-63
2023/03/25 05:34:55;;;;;;;29.13;4.70;;;;;;;9.18;100.00;100112.97;5028365;28;20056;-64
2023/03/25 05:37:20;;;;;;;36.90;5.18;;;;;;;9.22;100.00;100110.13;5027985;28;20025;-63
2023/03/25 05:39:46;;;;;;;31.13;6.25;;;;;;;9.18;100.00;100115.59;5027908;28;20104;-63
2023/03/25 05:42:11;;;;;;;31.30;5.22;;;;;;;9.24;100.00;100102.19;5026771;28;20124;-64
2023/03/25 05:44:37;;;;;;;34.22;4.38;;;;;;;9.32;100.00;100100.13;5028019;28;20025;-64
2023/03/25 05:47:03;;;;;;;33.65;4.80;;;;;;;9.30;100.00;100109.81;5027941;28;20021;-61
2023/03/25 05:49:29;;;;;;;26.00;4.85;;;;;;;9.45;100.00;100112.78;5027197;28;20026;-61
2023/03/25 05:51:54;;;;;;;35.85;6.00;;;;;;;9.49;100.00;100109.09;5027774;28;20400;-63
2023/03/25 05:54:23;;;;;;;34.45;4.80;;;;;;;9.46;100.00;100122.34;5026894;28;20457;-63
2023/03/25 05:56:49;;;;;;;34.85;5.30;;;;;;;9.36;100.00;100108.72;5025881;28;20479;-64
2023/03/25 05:59:15;;;;;;;22.48;4.07;;;;;;;9.49;100.00;100116.97;5027104;28;20028;-64
2023/03/25 06:01:44;;;;;;;32.38;4.28;;;;;;;9.45;100.00;100120.66;5027040;28;20054;-63
2023/03/25 06:04:11;;;;;;;34.28;4.78;;;;;;;9.44;100.00;100116.28;5026568;28;20436;-63
2023/03/25 06:06:38;;;;;;;22.75;3.63;;;;;;;9.44;100.00;100125.06;5027163;28;20628;-62
2023/03/25 06:09:05;;;;;;;34.53;5.03;;;;;;;9.46;100.00;100130.25;5026432;28;20016;-62
2023/03/25 06:11:36;;;;;;;35.78;5.47;;;;;;;9.39;100.00;100140.16;5035315;28;20621;-61
2023/03/25 06:14:02;;;;;;;33.85;4.95;;;;;;;9.28;100.00;100156.38;5013531;28;20036;-63
2023/03/25 06:16:28;;;;;;;33.40;6.35;;;;;;;9.33;100.00;100138.63;5027283;28;20053;-62
2023/03/25 06:18:58;;;;;;;27.63;4.90;;;;;;;9.33;100.00;100143.03;5027101;28;20025;-62
2023/03/25 06:21:25;;;;;;;39.38;5.43;;;;;;;9.41;100.00;100137.47;5026241;28;20021;-63
2023/03/25 06:23:52;;;;;;;29.73;4.75;;;;;;;9.44;100.00;100138.19;5025878;28;20040;-62
2023/03/25 06:26:18;;;;;;;29.65;4.60;;;;;;;9.52;100.00;100134.41;5026179;28;20021;-62
2023/03/25 06:28:44;;;;;;;50.30;5.22;;;;;;;9.52;100.00;100135.25;5025848;28;20148;-62
2023/03/25 06:31:17;;;;;;;34.53;5.22;;;;;;;9.61;100.00;100136.66;5025595;28;20112;-63
2023/03/25 06:33:44;;;;;;;35.25;5.15;;;;;;;9.63;100.00;100126.06;5026452;28;20029;-62
2023/03/25 06:36:10;;;;;;;21.00;4.30;;;;;;;9.63;100.00;100128.72;5026565;28;20037;-63
2023/03/25 06:38:37;;;;;;;29.10;5.25;;;;;;;9.55;100.00;100144.78;5008921;28;20036;-62
2023/03/25 06:41:03;;;;;;;26.75;4.22;;;;;;;9.59;100.00;100149.00;5026548;28;20053;-62
2023/03/25 06:43:28;;;;;;;37.35;4.47;;;;;;;9.63;100.00;100170.78;5025467;28;20107;-62
2023/03/25 06:45:53;;;;;;;29.20;4.72;;;;;;;9.68;100.00;100153.91;5027336;28;20037;-64
2023/03/25 06:48:19;;;;;;;26.65;4.13;;;;;;;9.72;100.00;100157.25;5026440;28;20026;-62
2023/03/25 06:50:44;;;;;;;19.70;3.83;;;;;;;9.82;100.00;100139.31;5025842;28;20653;-62
2023/03/25 06:53:10;;;;;;;28.08;4.15;;;;;;;9.83;100.00;100149.78;5026793;28;20732;-62
2023/03/25 06:55:35;;;;;;;29.65;4.38;;;;;;;9.82;100.00;100147.22;5027406;28;20079;-64
2023/03/25 06:58:01;;;;;;;34.42;3.85;;;;;;;9.94;100.00;100143.19;5026518;28;20021;-64
2023/03/25 07:00:27;;;;;;;30.92;4.20;;;;;;;9.95;100.00;100156.28;5033453;28;20048;-60
2023/03/25 07:02:53;;;;;;;31.60;4.25;;;;;;;9.96;100.00;100157.13;5025834;28;20045;-62
2023/03/25 07:05:18;;;;;;;24.85;4.15;;;;;;;9.93;100.00;100152.03;5026430;28;20040;-61
2023/03/25 07:07:44;;;;;;;26.05;4.15;;;;;;;9.93;100.00;100168.66;5020310;28;20052;-63
2023/03/25 07:10:11;;;;;;;23.70;4.30;;;;;;;9.95;100.00;100176.47;5026741;28;20033;-63
2023/03/25 07:12:37;;;;;;;21.70;3.58;;;;;;;10.06;100.00;100163.72;5025448;28;20033;-63
2023/03/25 07:15:03;;;;;;;27.92;4.05;;;;;;;10.07;100.00;100164.56;5008911;28;20082;-64
2023/03/25 07:17:28;;;;;;;34.22;4.65;;;;;;;10.13;100.00;100174.84;5027023;28;20013;-62
2023/03/25 07:19:53;;;;;;;26.83;4.10;;;;;;;10.07;100.00;100175.97;5026084;28;20108;-63
2023/03/25 07:22:19;;;;;;;32.95;4.47;;;;;;;9.99;100.00;100160.50;5026108;28;20029;-63
2023/03/25 07:24:44;;;;;;;29.92;3.55;;;;;;;10.17;100.00;100170.31;5026570;28;20363;-63
2023/03/25 07:27:11;;;;;;;24.63;3.70;;;;;;;10.17;100.00;100165.91;5004626;28;20034;-62
2023/03/25 07:29:36;;;;;;;20.38;3.83;;;;;;;10.21;100.00;100172.72;5025085;28;20033;-62
2023/03/25 07:32:02;;;;;;;25.13;3.75;;;;;;;10.23;100.00;100173.53;5009450;28;20660;-62
2023/03/25 07:34:27;;;;;;;21.67;4.07;;;;;;;10.11;100.00;100182.81;5012101;28;20025;-63
2023/03/25 07:36:53;;;;;;;21.95;3.75;;;;;;;10.38;100.00;100162.41;5023278;28;20243;-64
2023/03/25 07:39:18;;;;;;;23.30;4.28;;;;;;;10.40;100.00;100171.94;5017374;28;20050;-62
2023/03/25 07:41:46;;;;;;;22.92;3.38;;;;;;;10.30;100.00;100184.63;5020900;28;20034;-63
2023/03/25 07:44:11;;;;;;;21.40;3.55;;;;;;;10.30;100.00;100183.81;5017672;28;20025;-64
2023/03/25 07:46:36;;;;;;;22.65;4.22;;;;;;;10.49;100.00;100170.72;5018141;28;20028;-62
2023/03/25 07:49:02;;;;;;;28.88;4.30;;;;;;;10.40;100.00;100164.03;5018933;28;20018;-62
2023/03/25 07:51:29;;;;;;;22.83;3.42;;;;;;;10.41;100.00;100175.44;5018290;28;20029;-62
2023/03/25 07:53:54;;;;;;;25.52;4.55;;;;;;;10.46;100.00;100219.13;5028004;28;20038;-62
2023/03/25 07:56:19;;;;;;;21.08;3.63;;;;;;;10.52;100.00;100189.03;5026427;28;20481;-62
2023/03/25 07:58:45;;;;;;;21.10;3.80;;;;;;;10.51;100.00;100166.25;5027181;28;20026;-66
2023/03/25 08:01:11;;;;;;;25.58;3.40;;;;;;;10.53;100.00;100189.88;5020684;28;20117;-64
2023/03/25 08:03:38;;;;;;;29.42;4.00;;;;;;;10.49;100.00;100173.34;5003098;28;20499;-63
2023/03/25 08:06:04;;;;;;;28.70;4.15;;;;;;;10.56;100.00;100214.28;5017739;28;20112;-64
2023/03/25 08:08:30;;;;;;;18.65;4.65;;;;;;;10.42;100.00;100174.50;5023071;28;20200;-63
2023/03/25 08:10:55;;;;;;;27.95;4.30;;;;;;;10.57;100.00;100199.34;5028057;28;20300;-64
2023/03/25 08:13:21;;;;;;;22.95;4.05;;;;;;;10.58;100.00;100199.28;5026303;28;20022;-64
2023/03/25 08:15:46;;;;;;;24.70;3.63;;;;;;;10.47;100.00;100209.41;5027179;28;20485;-66
2023/03/25 08:18:12;;;;;;;33.05;4.68;;;;;;;10.70;100.00;100181.22;5008723;28;20440;-64
2023/03/25 08:20:37;;;;;;;26.58;3.60;;;;;;;10.64;100.00;100236.81;5028193;28;20040;-61
2023/03/25 08:23:03;;;;;;;30.85;4.57;;;;;;;10.85;100.00;100190.22;5027654;28;20037;-64
2023/03/25 08:25:29;;;;;;;32.45;4.30;;;;;;;10.84;100.00;100218.34;5011126;28;20025;-64
2023/03/25 08:27:55;;;;;;;24.75;3.55;;;;;;;10.95;100.00;100190.63;5026830;28;20033;-61
2023/03/25 08:30:21;;;;;;;28.90;4.43;;;;;;;10.95;100.00;100209.06;5027167;28;20076;-63
2023/03/25 08:32:52;;;;;;;23.83;4.47;;;;;;;11.04;100.00;100192.84;5026129;28;20044;-62
2023/03/25 08:35:18;;;;;;;29.60;4.95;;;;;;;11.07;100.00;100216.44;5024445;28;20112;-64
2023/03/25 08:37:44;;;;;;;34.67;4.60;;;;;;;11.11;100.00;100209.25;5016393;28;20100;-62
2023/03/25 08:40:09;;;;;;;23.67;4.05;;;;;;;11.20;100.00;100207.97;4991665;28;20035;-60
2023/03/25 08:42:36;;;;;;;27.80;4.50;;;;;;;11.12;100.00;100222.38;4997531;28;20084;-61
2023/03/25 08:45:02;;;;;;;27.20;4.45;;;;;;;11.10;100.00;100212.78;5021410;28;20053;-62
2023/03/25 08:47:28;;;;;;;24.75;4.90;;;;;;;11.08;100.00;100209.41;5015551;28;20034;-61
2023/03/25 08:49:53;;;;;;;27.75;4.75;;;;;;;11.19;100.00;100211.50;5017054;28;20021;-62
2023/03/25 08:52:20;;;;;;;26.23;4.40;;;;;;;11.33;100.00;100201.19;5020758;28;20461;-60
2023/03/25 08:54:45;;;;;;;32.03;5.07;;;;;;;11.32;100.00;100199.47;5020431;28;20032;-64
2023/03/25 08:57:11;;;;;;;32.85;5.40;;;;;;;11.33;100.00;100208.25;5019448;28;20029;-63
2023/03/25 08:59:36;;;;;;;26.63;4.38;;;;;;;11.41;100.00;100210.53;5016831;28;20018;-63
2023/03/25 09:02:02;;;;;;;35.60;4.35;;;;;;;11.36;100.00;100206.31;5021079;28;20414;-62
2023/03/25 09:04:29;;;;;;;29.48;5.13;;;;;;;11.43;100.00;100232.38;5016579;28;20022;-62
2023/03/25 09:06:55;;;;;;;33.65;4.93;;;;;;;11.46;100.00;100214.63;5021156;28;20033;-64
2023/03/25 09:09:20;;;;;;;30.15;5.32;;;;;;;11.49;100.00;100235.59;5018398;28;20483;-62
2023/03/25 09:11:45;;;;;;;26.60;4.88;;;;;;;11.82;100.00;100219.97;5011128;28;20030;-63
2023/03/25 09:14:11;;;;;;;31.50;5.60;;;;;;;11.84;100.00;100212.84;5014747;28;20465;-63
2023/03/25 09:16:36;;;;;;;15.80;3.85;;;;;;;11.86;100.00;100213.66;5015152;28;20029;-62
2023/03/25 09:19:02;;;;;;;34.17;5.07;;;;;;;11.65;100.00;100218.19;5005556;28;20156;-62
2023/03/25 09:21:27;;;;;;;32.63;4.45;;;;;;;11.62;100.00;100241.13;5026209;28;20021;-63
2023/03/25 09:23:53;;;;;;;25.75;4.40;;;;;;;11.52;100.00;100239.00;5026389;28;20041;-62
2023/03/25 09:26:18;;;;;;;25.00;4.53;;;;;;;11.55;100.00;100208.06;5024774;28;20029;-60
2023/03/25 09:28:44;;;;;;;31.70;5.00;;;;;;;11.63;100.00;100237.56;5026023;28;20034;-62
2023/03/25 09:31:09;;;;;;;33.42;4.43;;;;;;;11.57;100.00;100242.28;5025537;28;20025;-64
2023/03/25 09:33:35;;;;;;;25.85;3.85;;;;;;;11.51;100.00;100238.16;5028607;28;20044;-64
2023/03/25 09:36:02;;;;;;;37.33;5.40;;;;;;;11.46;100.00;100250.72;5011802;28;20033;-64
2023/03/25 09:38:27;;;;;;;26.95;4.28;;;;;;;11.61;100.00;100244.72;5027070;28;20397;-65
2023/03/25 09:40:53;;;;;;;33.65;5.50;;;;;;;11.77;100.00;100208.81;5026738;28;20021;-65
2023/03/25 09:43:46;;;;;;;34.38;5.72;;;;;;;12.22;100.00;100254.16;5024118;28;20472;-65
2023/03/25 09:46:11;;;;;;;28.38;5.65;;;;;;;12.04;100.00;100255.91;5025778;28;20036;-61
2023/03/25 09:48:40;;;;;;;32.65;5.38;;;;;;;12.12;100.00;100199.16;5025219;28;20029;-61
2023/03/25 09:51:12;;;;;;;26.98;4.22;;;;;;;11.93;100.00;100257.28;5016655;28;20057;-63
2023/03/25 09:53:59;;;;;;;31.27;4.53;;;;;;;12.20;100.00;100234.88;4997727;28;20026;-63
2023/03/25 09:56:27;;;;;;;27.38;4.28;;;;;;;11.96;100.00;100257.13;5021057;28;20030;-67
2023/03/25 09:59:00;;;;;;;25.63;3.70;;;;;;;12.12;100.00;100267.81;5025926;28;20033;-63
2023/03/25 10:01:47;;;;;;;35.58;4.82;;;;;;;11.84;100.00;100253.31;5026808;28;20645;-64
2023/03/25 10:04:25;;;;;;;32.67;4.80;;;;;;;11.99;100.00;100264.03;5026259;28;20029;-67
2023/03/25 10:07:25;;;;;;;22.23;4.00;;;;;;;11.99;100.00;100258.78;5026693;28;20477;-65
2023/03/25 10:10:17;;;;;;;23.63;4.20;;;;;;;12.20;100.00;100272.72;5007283;28;20042;-62
2023/03/25 10:12:46;;;;;;;27.70;4.90;;;;;;;12.32;100.00;100265.97;5026487;28;20025;-65
2023/03/25 10:15:14;;;;;;;23.10;4.68;;;;;;;12.16;100.00;100300.19;5026902;28;20033;-65
2023/03/25 10:17:58;;;;;;;24.97;4.10;;;;;;;12.05;100.00;100261.09;5023939;28;20080;-62
2023/03/25 10:20:45;;;;;;;24.65;4.13;;;;;;;12.21;100.00;100278.84;5016075;28;20018;-66
2023/03/25 10:23:51;;;;;;;28.30;4.07;;;;;;;12.30;100.00;100293.38;5015828;28;20029;-64
2023/03/25 10:26:24;;;;;;;24.60;5.50;;;;;;;12.31;100.00;100301.22;5022816;28;20043;-65
2023/03/25 10:29:02;;;;;;;24.40;4.15;;;;;;;12.36;100.00;100298.38;5008007;28;20021;-65
2023/03/25 10:31:30;;;;;;;28.75;4.80;;;;;;;12.35;100.00;100308.09;5005587;28;20071;-64
2023/03/25 10:34:10;;;;;;;42.05;5.40;;;;;;;12.43;100.00;100291.84;4997249;28;20025;-65
2023/03/25 10:36:48;;;;;;;28.35;4.35;;;;;;;12.41;100.00;100288.44;5000556;28;20120;-65
2023/03/25 10:39:18;;;;;;;23.73;3.92;;;;;;;12.45;100.00;100297.03;4988954;28;20018;-64
2023/03/25 10:41:47;;;;;;;25.88;4.35;;;;;;;12.42;100.00;100294.56;5005874;28;20494;-65
2023/03/25 10:44:12;;;;;;;26.88;4.80;;;;;;;12.48;100.00;100318.91;4998196;28;20018;-65
2023/03/25 10:46:48;;;;;;;21.95;4.63;;;;;;;12.32;100.00;100315.31;5021087;28;20069;-61
2023/03/25 10:49:20;;;;;;;23.30;4.00;;;;;;;12.47;100.00;100272.28;5007799;28;20219;-64
2023/03/25 10:51:46;;;;;;;21.70;3.33;;;;;;;12.35;100.00;100305.44;5004880;28;20037;-61
2023/03/25 10:54:13;;;;;;;29.83;4.15;;;;;;;12.44;100.00;100303.28;5028753;28;20029;-63
2023/03/25 10:56:43;;;;;;;28.15;4.35;;;;;;;12.62;100.00;100302.31;5007560;28;20132;-68
2023/03/25 10:59:18;;;;;;;24.52;5.43;;;;;;;12.68;100.00;100316.16;5026049;28;20539;-63
2023/03/25 11:01:44;;;;;;;28.27;4.90;;;;;;;12.66;100.00;100300.38;5000075;28;20050;-65
2023/03/25 11:04:16;;;;;;;17.45;4.07;;;;;;;12.69;100.00;100305.50;5012998;28;20486;-66
2023/03/25 11:06:45;;;;;;;22.52;4.28;;;;;;;13.14;100.00;100339.34;5013785;28;20482;-67
2023/03/25 11:09:16;;;;;;;;;;;;;;;13.23;99.46;100324.78;5018093;28;20025;-64
2023/03/25 11:11:42;;;;;;;27.30;4.15;;;;;;;12.82;99.96;100303.09;5018545;28;20384;-65
2023/03/25 11:14:09;;;;;;;29.98;4.25;;;;;;;12.73;99.87;100314.13;5023645;28;20093;-63
2023/03/25 11:16:51;;;;;;;21.30;4.13;;;;;;;12.62;100.00;100326.09;5019853;28;20079;-66
2023/03/25 11:19:24;;;;;;;23.10;4.03;;;;;;;12.88;100.00;100331.84;5026011;28;20030;-64
2023/03/25 11:22:00;;;;;;;28.88;4.60;;;;;;;13.01;99.07;100320.66;5014040;28;20042;-63
2023/03/25 11:24:30;;;;;;;19.00;4.15;;;;;;;13.23;98.89;100340.66;5000656;28;20033;-62
2023/03/25 11:26:55;;;;;;;21.45;4.28;;;;;;;13.37;98.85;100316.94;5003056;28;20013;-65